Time;durP1;ratioP1;P1;durP2;ratioP2;P2;SDS_P1;SDS_P2;PMS_P1;PMS_P2;Temp;Humidity;BMP_temperature;BMP_pressure;BME280_temperature;BME280_humidity;BME280_pressure;Samples;Min_cycle;Max_cycle;Signal;HPM_P1;HPM_P2
2023/08/11 00:01:00;;;;;;;17.50;9.57;;;14.30;99.90;;;;;;5032999;28;20064;-71
2023/08/11 00:03:26;;;;;;;14.48;8.90;;;14.20;99.90;;;;;;5033853;28;20033;-70
2023/08/11 00:05:54;;;;;;;14.63;8.88;;;14.20;99.90;;;;;;5033896;28;20084;-71
2023/08/11 00:08:20;;;;;;;14.05;8.55;;;14.20;99.90;;;;;;5033970;28;20038;-71
2023/08/11 00:10:46;;;;;;;13.93;8.27;;;14.20;99.90;;;;;;5033873;28;20048;-70
2023/08/11 00:13:13;;;;;;;13.77;8.32;;;14.20;99.90;;;;;;5033645;28;20124;-70
2023/08/11 00:15:40;;;;;;;17.40;11.02;;;14.10;99.90;;;;;;5033375;28;20025;-70
2023/08/11 00:18:09;;;;;;;16.30;10.57;;;14.10;99.90;;;;;;5033316;28;20121;-70
2023/08/11 00:20:34;;;;;;;27.67;18.33;;;14.10;99.90;;;;;;5034131;28;20030;-70
2023/08/11 00:23:00;;;;;;;19.90;13.85;;;14.10;99.90;;;;;;5033289;28;20064;-70
2023/08/11 00:25:26;;;;;;;22.95;14.27;;;14.10;99.90;;;;;;5033563;28;20499;-70
2023/08/11 00:27:51;;;;;;;24.85;17.30;;;14.10;99.90;;;;;;5033434;28;20037;-70
2023/08/11 00:30:18;;;;;;;21.85;15.02;;;14.20;99.90;;;;;;5033474;28;20025;-70
2023/08/11 00:32:45;;;;;;;20.02;12.95;;;14.10;99.90;;;;;;5033713;28;20034;-70
2023/08/11 00:35:11;;;;;;;19.52;12.30;;;14.00;99.90;;;;;;5033946;28;20032;-70
2023/08/11 00:37:36;;;;;;;20.75;13.23;;;14.00;99.90;;;;;;5033157;28;20395;-71
2023/08/11 00:40:04;;;;;;;22.60;13.13;;;13.90;99.90;;;;;;5033418;28;20030;-70
2023/08/11 00:42:30;;;;;;;21.00;12.90;;;13.90;99.90;;;;;;5033095;28;20506;-70
2023/08/11 00:44:58;;;;;;;21.88;13.70;;;14.00;99.90;;;;;;5033888;28;20025;-70
2023/08/11 00:47:23;;;;;;;18.95;12.50;;;14.00;99.90;;;;;;5033560;28;20087;-70
2023/08/11 00:49:50;;;;;;;19.67;12.18;;;14.00;99.90;;;;;;5033146;28;20422;-70
2023/08/11 00:52:16;;;;;;;16.25;11.52;;;14.00;99.90;;;;;;5033759;28;20033;-71
2023/08/11 00:54:42;;;;;;;17.67;12.48;;;14.00;99.90;;;;;;5033225;28;20022;-71
2023/08/11 00:57:08;;;;;;;18.67;12.40;;;14.00;99.90;;;;;;5033788;28;20380;-70
2023/08/11 00:59:34;;;;;;;18.88;12.07;;;14.00;99.90;;;;;;5033795;28;20022;-70
2023/08/11 01:02:00;;;;;;;20.10;13.60;;;14.00;99.90;;;;;;5032836;28;20099;-70
2023/08/11 01:04:26;;;;;;;25.83;13.15;;;14.10;99.90;;;;;;5033456;28;20037;-70
2023/08/11 01:07:31;;;;;;;23.88;13.82;;;14.10;99.90;;;;;;5033455;28;20160;-70
2023/08/11 01:10:07;;;;;;;15.73;10.27;;;14.10;99.90;;;;;;5035289;28;20036;-70
2023/08/11 01:13:06;;;;;;;20.98;13.38;;;14.10;99.90;;;;;;5036772;28;20022;-70
2023/08/11 01:15:38;;;;;;;20.70;12.18;;;14.00;99.90;;;;;;5035983;28;20163;-70
2023/08/11 01:18:06;;;;;;;17.58;12.63;;;13.90;99.90;;;;;;5036376;28;20029;-70
2023/08/11 01:20:33;;;;;;;20.25;12.77;;;13.90;99.90;;;;;;5037112;28;20030;-71
2023/08/11 01:23:01;;;;;;;22.45;13.10;;;14.00;99.90;;;;;;5035996;28;20487;-71
2023/08/11 01:25:29;;;;;;;21.23;13.00;;;14.00;99.90;;;;;;5036618;28;20471;-70
2023/08/11 01:27:56;;;;;;;20.05;12.70;;;14.00;99.90;;;;;;5036938;28;20340;-71
2023/08/11 01:30:23;;;;;;;22.27;13.63;;;14.00;99.90;;;;;;5036717;28;20418;-71
2023/08/11 01:32:51;;;;;;;25.02;14.55;;;13.90;99.90;;;;;;5036636;28;20025;-71
2023/08/11 01:35:18;;;;;;;17.42;12.20;;;13.90;99.90;;;;;;5036382;28;20493;-70
2023/08/11 01:37:44;;;;;;;25.27;14.07;;;13.90;99.90;;;;;;5036526;28;20471;-71
2023/08/11 01:40:11;;;;;;;18.77;13.50;;;13.90;99.90;;;;;;5036686;28;20040;-70
2023/08/11 01:42:39;;;;;;;22.48;11.95;;;13.90;99.90;;;;;;5036199;28;20486;-71
2023/08/11 01:45:07;;;;;;;23.75;13.70;;;14.00;99.90;;;;;;5036227;28;20160;-71
2023/08/11 01:47:36;;;;;;;21.42;12.73;;;13.90;99.90;;;;;;5035749;28;20036;-71
2023/08/11 01:50:02;;;;;;;20.33;13.88;;;13.90;99.90;;;;;;5036483;28;20084;-71
2023/08/11 01:52:31;;;;;;;26.05;15.02;;;13.80;99.90;;;;;;5036164;28;20028;-72
2023/08/11 01:54:57;;;;;;;17.15;13.20;;;13.90;99.90;;;;;;5036112;28;20029;-71
2023/08/11 01:57:23;;;;;;;23.95;13.45;;;13.90;99.90;;;;;;5035934;28;20104;-70
2023/08/11 01:59:48;;;;;;;18.75;12.10;;;13.80;99.90;;;;;;5035649;28;20060;-70
2023/08/11 02:02:14;;;;;;;25.63;13.90;;;13.80;99.90;;;;;;5035217;28;20049;-70
2023/08/11 02:04:39;;;;;;;16.45;12.68;;;13.80;99.90;;;;;;5036197;28;20053;-71
2023/08/11 02:07:05;;;;;;;26.95;15.55;;;13.80;99.90;;;;;;5035754;28;20029;-70
2023/08/11 02:09:31;;;;;;;24.17;16.27;;;13.90;99.90;;;;;;5035390;28;20087;-71
2023/08/11 02:11:57;;;;;;;24.05;14.85;;;14.00;99.90;;;;;;5035438;28;20025;-70
2023/08/11 02:14:22;;;;;;;18.55;13.88;;;13.90;99.90;;;;;;5035815;28;20483;-71
2023/08/11 02:16:48;;;;;;;25.27;14.93;;;13.80;99.90;;;;;;5035743;28;20120;-71
2023/08/11 02:19:14;;;;;;;24.85;16.38;;;14.00;99.90;;;;;;5036001;28;20472;-71
2023/08/11 02:21:40;;;;;;;26.45;16.20;;;13.80;99.90;;;;;;5035533;28;20060;-71
2023/08/11 02:24:05;;;;;;;23.20;15.05;;;13.80;99.90;;;;;;5035125;28;20037;-71
2023/08/11 02:26:32;;;;;;;28.33;17.35;;;13.80;99.90;;;;;;5035651;28;20453;-71
2023/08/11 02:28:58;;;;;;;25.40;16.23;;;13.90;99.90;;;;;;5035847;28;20112;-71
2023/08/11 02:31:25;;;;;;;27.55;17.48;;;14.00;99.90;;;;;;5035119;28;20136;-71
2023/08/11 02:33:51;;;;;;;24.23;16.15;;;13.90;99.90;;;;;;5035658;28;20029;-71
2023/08/11 02:36:19;;;;;;;27.10;18.10;;;13.90;99.90;;;;;;5035440;28;20056;-71
2023/08/11 02:38:45;;;;;;;28.20;17.58;;;13.90;99.90;;;;;;5034957;28;20032;-71
2023/08/11 02:41:11;;;;;;;26.27;16.77;;;13.90;99.90;;;;;;5035007;28;20025;-71
2023/08/11 02:43:36;;;;;;;25.38;17.40;;;13.90;99.90;;;;;;5035490;28;20505;-71
2023/08/11 02:46:05;;;;;;;27.23;17.30;;;13.90;99.90;;;;;;5035472;28;20017;-71
2023/08/11 02:48:33;;;;;;;32.55;19.67;;;13.90;99.90;;;;;;5035453;28;20032;-71
2023/08/11 02:51:03;;;;;;;31.75;19.27;;;13.90;99.90;;;;;;5035409;28;20021;-71
2023/08/11 02:53:29;;;;;;;29.80;20.52;;;13.90;99.90;;;;;;5035032;28;20029;-71
2023/08/11 02:55:54;;;;;;;27.63;19.25;;;13.90;99.90;;;;;;5035295;28;20029;-71
2023/08/11 02:58:20;;;;;;;24.45;17.38;;;13.90;99.90;;;;;;5034074;28;20056;-71
2023/08/11 03:00:47;;;;;;;26.23;18.08;;;13.90;99.90;;;;;;5034982;28;20030;-71
2023/08/11 03:03:13;;;;;;;26.50;19.27;;;13.80;99.90;;;;;;5034630;28;20090;-71
2023/08/11 03:05:38;;;;;;;33.90;20.42;;;13.80;99.90;;;;;;5034415;28;20094;-71
2023/08/11 03:08:04;;;;;;;34.88;19.77;;;13.80;99.90;;;;;;5035094;28;20474;-71
2023/08/11 03:10:30;;;;;;;28.15;19.08;;;13.80;99.90;;;;;;5035027;28;20035;-71
2023/08/11 03:12:55;;;;;;;27.75;18.80;;;13.70;99.90;;;;;;5034540;28;20036;-71
2023/08/11 03:15:21;;;;;;;29.02;19.15;;;13.70;99.90;;;;;;5033937;28;20029;-71
2023/08/11 03:17:47;;;;;;;27.80;18.75;;;13.70;99.90;;;;;;5034056;28;20033;-71
2023/08/11 03:20:13;;;;;;;25.13;18.35;;;13.70;99.90;;;;;;5034650;28;20036;-71
2023/08/11 03:22:40;;;;;;;26.52;16.52;;;13.70;99.90;;;;;;5034299;28;20072;-70
2023/08/11 03:25:07;;;;;;;22.83;16.50;;;13.70;99.90;;;;;;5034287;28;20542;-70
2023/08/11 03:27:34;;;;;;;33.25;21.42;;;13.70;99.90;;;;;;5034302;28;20383;-70
2023/08/11 03:29:59;;;;;;;28.65;19.98;;;13.40;99.90;;;;;;5034002;28;20108;-71
2023/08/11 03:32:25;;;;;;;34.28;20.23;;;13.80;99.90;;;;;;5033909;28;20091;-70
2023/08/11 03:34:51;;;;;;;26.67;19.27;;;13.60;99.90;;;;;;5034521;28;20403;-71
2023/08/11 03:37:16;;;;;;;34.45;22.20;;;13.70;99.90;;;;;;5033925;28;20037;-71
2023/08/11 03:39:42;;;;;;;33.20;20.60;;;13.70;99.90;;;;;;5033489;28;20087;-71
2023/08/11 03:42:08;;;;;;;32.63;20.88;;;13.70;99.90;;;;;;5034037;28;20128;-71
2023/08/11 03:44:33;;;;;;;31.08;20.92;;;13.60;99.90;;;;;;5034215;28;20426;-71
2023/08/11 03:46:59;;;;;;;33.67;22.33;;;13.50;99.90;;;;;;5033926;28;20060;-71
2023/08/11 03:49:25;;;;;;;37.17;21.80;;;13.60;99.90;;;;;;5033910;28;20100;-71
2023/08/11 03:51:51;;;;;;;34.30;22.85;;;13.60;99.90;;;;;;5034141;28;20237;-71
2023/08/11 03:54:16;;;;;;;35.03;22.38;;;13.60;99.90;;;;;;5033258;28;20394;-71
2023/08/11 03:56:43;;;;;;;27.23;18.50;;;13.60;99.90;;;;;;5034236;28;20037;-71
2023/08/11 03:59:09;;;;;;;29.88;20.02;;;13.60;99.90;;;;;;5034270;28;20033;-71
2023/08/11 04:01:34;;;;;;;29.45;19.40;;;13.60;99.90;;;;;;5033211;28;20049;-71
2023/08/11 04:04:00;;;;;;;30.10;20.13;;;13.50;99.90;;;;;;5034260;28;20113;-71
2023/08/11 04:06:32;;;;;;;27.42;17.35;;;13.50;99.90;;;;;;5033611;28;20060;-71
2023/08/11 04:08:59;;;;;;;35.33;22.58;;;13.60;99.90;;;;;;5033768;28;20075;-71
2023/08/11 04:11:25;;;;;;;35.65;21.02;;;13.60;99.90;;;;;;5033402;28;20467;-71
2023/08/11 04:13:51;;;;;;;30.40;20.33;;;13.60;99.90;;;;;;5033903;28;20543;-71
2023/08/11 04:16:16;;;;;;;27.00;19.23;;;13.50;99.90;;;;;;5033662;28;20053;-71
2023/08/11 04:18:42;;;;;;;24.27;19.17;;;13.50;99.90;;;;;;5034218;28;20089;-71
2023/08/11 04:21:07;;;;;;;34.15;21.30;;;13.50;99.90;;;;;;5034191;28;20033;-71
2023/08/11 04:23:33;;;;;;;25.65;18.88;;;13.50;99.90;;;;;;5033880;28;20490;-71
2023/08/11 04:25:59;;;;;;;27.73;19.58;;;13.50;99.90;;;;;;5033790;28;20104;-71
2023/08/11 04:28:24;;;;;;;30.15;21.60;;;13.50;99.90;;;;;;5033371;28;20108;-70
2023/08/11 04:30:50;;;;;;;36.65;21.70;;;13.50;99.90;;;;;;5034036;28;20091;-71
2023/08/11 04:33:15;;;;;;;30.10;20.90;;;13.60;99.90;;;;;;5033551;28;20025;-70
2023/08/11 04:35:41;;;;;;;23.45;18.25;;;14.00;99.90;;;;;;5034004;28;20091;-70
2023/08/11 04:38:07;;;;;;;31.63;21.48;;;13.70;99.90;;;;;;5033551;28;20382;-70
2023/08/11 04:40:33;;;;;;;27.65;20.13;;;13.80;99.90;;;;;;5033452;28;20025;-70
2023/08/11 04:42:59;;;;;;;31.98;19.35;;;13.80;99.90;;;;;;5033420;28;20034;-70
2023/08/11 04:45:27;;;;;;;36.22;21.58;;;13.90;99.90;;;;;;5036176;28;20120;-70
2023/08/11 04:47:52;;;;;;;31.13;21.58;;;13.90;99.90;;;;;;5036748;28;20439;-70
2023/08/11 04:50:18;;;;;;;28.20;19.60;;;13.90;99.90;;;;;;5037441;28;20067;-70
2023/08/11 04:52:44;;;;;;;26.05;17.92;;;14.00;99.90;;;;;;5037628;28;20044;-70
2023/08/11 04:55:10;;;;;;;24.75;18.23;;;14.10;99.90;;;;;;5037051;28;20025;-70
2023/08/11 04:57:36;;;;;;;24.95;16.90;;;14.20;99.90;;;;;;5036796;28;20060;-70
2023/08/11 05:00:02;;;;;;;27.35;17.13;;;14.20;99.90;;;;;;5037483;28;20371;-70
2023/08/11 05:02:27;;;;;;;25.25;17.65;;;14.30;99.90;;;;;;5036274;28;20128;-70
2023/08/11 05:04:53;;;;;;;26.63;15.93;;;14.40;99.90;;;;;;5037227;28;20493;-70
2023/08/11 05:07:19;;;;;;;24.90;15.13;;;14.50;99.90;;;;;;5036908;28;20068;-70
2023/08/11 05:09:44;;;;;;;20.48;14.18;;;14.60;99.90;;;;;;5037295;28;20057;-70
2023/08/11 05:12:10;;;;;;;22.50;15.35;;;14.70;99.90;;;;;;5037015;28;20418;-70
2023/08/11 05:14:37;;;;;;;15.88;13.30;;;14.70;99.90;;;;;;5036735;28;20029;-70
2023/08/11 05:17:02;;;;;;;19.60;13.13;;;14.80;99.90;;;;;;5036554;28;20111;-70
2023/08/11 05:19:28;;;;;;;17.23;12.35;;;14.80;99.90;;;;;;5036513;28;20057;-70
2023/08/11 05:21:54;;;;;;;15.90;10.80;;;14.90;99.90;;;;;;5036847;28;20036;-70
2023/08/11 05:24:20;;;;;;;18.80;12.38;;;15.00;99.90;;;;;;5036461;28;20017;-70
2023/08/11 05:26:45;;;;;;;19.25;11.77;;;15.10;99.90;;;;;;5036740;28;20105;-71
2023/08/11 05:29:11;;;;;;;19.10;10.65;;;15.20;99.90;;;;;;5036984;28;20360;-71
2023/08/11 05:31:36;;;;;;;14.07;10.82;;;15.30;99.90;;;;;;5036191;28;20434;-71
2023/08/11 05:34:02;;;;;;;14.95;9.82;;;15.40;99.90;;;;;;5036361;28;20025;-70
2023/08/11 05:36:28;;;;;;;17.35;11.20;;;15.50;99.90;;;;;;5036539;28;20029;-71
2023/08/11 05:38:53;;;;;;;13.98;10.00;;;15.70;99.90;;;;;;5036518;28;20473;-70
2023/08/11 05:41:19;;;;;;;17.63;9.98;;;15.90;99.90;;;;;;5036328;28;20037;-71
2023/08/11 05:43:44;;;;;;;16.83;9.80;;;16.10;99.90;;;;;;5036135;28;20026;-71
2023/08/11 05:46:10;;;;;;;13.63;9.10;;;16.10;99.90;;;;;;5036682;28;20471;-71
2023/08/11 05:48:36;;;;;;;15.68;8.57;;;16.20;99.90;;;;;;5036519;28;20026;-72
2023/08/11 05:51:03;;;;;;;12.63;6.90;;;17.00;99.90;;;;;;5035814;28;20021;-71
2023/08/11 05:53:28;;;;;;;12.75;6.93;;;18.60;99.90;;;;;;5036405;28;20037;-72
2023/08/11 05:55:54;;;;;;;7.32;5.65;;;20.60;1.00;;;;;;5035570;28;20036;-71
2023/08/11 05:58:19;;;;;;;9.93;5.85;;;22.40;99.90;;;;;;5032482;28;20106;-72
2023/08/11 06:00:47;;;;;;;7.50;5.15;;;23.30;1.00;;;;;;5036678;28;20034;-72
2023/08/11 06:03:12;;;;;;;6.28;4.70;;;23.90;99.90;;;;;;5038943;28;20103;-72
2023/08/11 06:05:38;;;;;;;7.18;4.07;;;25.20;99.90;;;;;;5036856;28;20033;-72
2023/08/11 06:08:04;;;;;;;7.38;4.28;;;25.50;1.00;;;;;;5035444;28;20109;-71
2023/08/11 06:10:30;;;;;;;8.18;4.40;;;25.50;1.00;;;;;;5038223;28;20029;-72
2023/08/11 06:12:57;;;;;;;5.35;3.65;;;;;;;;;;5035226;28;20022;-72
2023/08/11 06:15:22;;;;;;;4.93;3.75;;;27.00;99.90;;;;;;5046414;28;20574;-72
2023/08/11 06:17:50;;;;;;;7.05;3.88;;;26.20;99.90;;;;;;5020194;28;20083;-72
2023/08/11 06:20:17;;;;;;;6.22;4.30;;;25.80;31.20;;;;;;5037440;28;20072;-72
2023/08/11 06:22:45;;;;;;;10.15;3.90;;;26.20;99.90;;;;;;5028028;28;20022;-72
2023/08/11 06:25:11;;;;;;;6.20;3.80;;;;;;;;;;5033555;28;20018;-72
2023/08/11 06:27:37;;;;;;;7.97;3.30;;;26.00;1.00;;;;;;5034942;28;20096;-72
2023/08/11 06:30:06;;;;;;;7.47;3.38;;;27.00;99.90;;;;;;5039208;28;20470;-71
2023/08/11 06:32:32;;;;;;;6.63;3.08;;;27.20;7.20;;;;;;5033848;28;20124;-72
2023/08/11 06:34:57;;;;;;;4.00;3.28;;;26.90;8.60;;;;;;5025203;28;20534;-71
2023/08/11 06:37:23;;;;;;;5.22;2.67;;;27.00;99.90;;;;;;5034503;28;20029;-71
2023/08/11 06:39:51;;;;;;;3.50;2.60;;;27.40;99.90;;;;;;5033828;28;20128;-72
2023/08/11 06:42:17;;;;;;;5.72;2.80;;;27.30;99.90;;;;;;5032386;28;20556;-71
2023/08/11 06:44:44;;;;;;;6.40;3.42;;;28.10;99.90;;;;;;5034136;28;20056;-72
2023/08/11 06:47:09;;;;;;;5.82;2.20;;;28.20;99.90;;;;;;5027498;28;20061;-71
2023/08/11 06:49:35;;;;;;;4.88;2.15;;;29.10;99.90;;;;;;5046054;28;20533;-71
2023/08/11 06:52:01;;;;;;;5.78;2.35;;;29.40;1.00;;;;;;5032869;28;20414;-71
2023/08/11 06:54:26;;;;;;;3.67;2.40;;;29.40;1.00;;;;;;5038732;28;20033;-72
2023/08/11 06:56:52;;;;;;;4.40;2.70;;;29.90;1.00;;;;;;5033903;28;20480;-71
2023/08/11 06:59:17;;;;;;;3.67;2.63;;;30.30;1.00;;;;;;5036948;28;20116;-71
2023/08/11 07:01:44;;;;;;;8.27;2.20;;;29.70;1.00;;;;;;5032343;28;20055;-71
2023/08/11 07:04:09;;;;;;;2.92;2.08;;;28.50;1.00;;;;;;5037215;28;20062;-71
2023/08/11 07:06:35;;;;;;;5.75;2.67;;;28.80;1.00;;;;;;5030703;28;20041;-71
2023/08/11 07:09:01;;;;;;;5.57;2.60;;;28.80;1.00;;;;;;5033992;28;20079;-71
2023/08/11 07:11:26;;;;;;;3.13;2.20;;;28.90;1.00;;;;;;5036524;28;20025;-71
2023/08/11 07:13:52;;;;;;;4.43;2.42;;;29.90;1.00;;;;;;5033817;28;20029;-71
2023/08/11 07:16:18;;;;;;;4.32;2.33;;;29.00;1.00;;;;;;5031130;28;20028;-72
2023/08/11 07:18:43;;;;;;;3.97;2.38;;;29.40;1.00;;;;;;5030607;28;20395;-71
2023/08/11 07:21:09;;;;;;;5.10;2.25;;;29.90;1.00;;;;;;5027766;28;20072;-71
2023/08/11 07:23:35;;;;;;;6.70;2.50;;;30.20;1.00;;;;;;5025313;28;20029;-71
2023/08/11 07:26:00;;;;;;;3.95;2.10;;;29.70;99.90;;;;;;5032036;28;20030;-71
2023/08/11 07:28:26;;;;;;;3.17;2.10;;;29.70;99.90;;;;;;5031522;28;20037;-71
2023/08/11 07:30:51;;;;;;;4.20;1.83;;;29.20;99.90;;;;;;5029330;28;20406;-71
2023/08/11 07:33:17;;;;;;;6.30;2.50;;;30.00;99.90;;;;;;5032471;28;20029;-73
2023/08/11 07:35:43;;;;;;;3.90;2.03;;;29.20;1.00;;;;;;5027011;28;20029;-72
2023/08/11 07:38:09;;;;;;;4.93;2.15;;;29.90;1.00;;;;;;5033005;28;20450;-71
2023/08/11 07:40:35;;;;;;;4.75;2.13;;;30.40;99.90;;;;;;5031896;28;20045;-71
2023/08/11 07:43:00;;;;;;;5.43;2.20;;;31.20;1.00;;;;;;5024486;28;20060;-71
2023/08/11 07:45:26;;;;;;;5.38;2.40;;;31.80;1.00;;;;;;5021163;28;20036;-71
2023/08/11 07:47:52;;;;;;;4.05;2.38;;;32.00;1.00;;;;;;5016705;28;20376;-71
2023/08/11 07:50:17;;;;;;;6.47;2.15;;;31.20;1.00;;;;;;5021302;28;20029;-71
2023/08/11 07:52:43;;;;;;;3.92;2.50;;;31.00;1.00;;;;;;5027127;28;20109;-71
2023/08/11 07:55:09;;;;;;;3.15;1.90;;;31.30;1.00;;;;;;5031943;28;20087;-71
2023/08/11 07:57:34;;;;;;;6.45;2.42;;;31.60;1.00;;;;;;5032658;28;20116;-71
2023/08/11 08:00:00;;;;;;;3.90;2.08;;;31.90;1.00;;;;;;5026879;28;20041;-71
2023/08/11 08:02:26;;;;;;;4.25;1.83;;;32.10;1.00;;;;;;5022732;28;20122;-72
2023/08/11 08:04:51;;;;;;;5.18;2.85;;;32.00;1.00;;;;;;5030839;28;20033;-71
2023/08/11 08:07:17;;;;;;;4.28;1.98;;;31.20;1.00;;;;;;5026693;28;20036;-71
2023/08/11 08:09:43;;;;;;;5.57;2.33;;;31.50;1.00;;;;;;5031436;28;20387;-71
2023/08/11 08:12:08;;;;;;;5.22;2.10;;;31.00;1.00;;;;;;5033114;28;20104;-71
2023/08/11 08:14:34;;;;;;;5.72;1.90;;;31.20;1.00;;;;;;5031618;28;20438;-71
2023/08/11 08:17:01;;;;;;;5.13;1.90;;;31.50;1.00;;;;;;5031627;28;20033;-71
2023/08/11 08:19:27;;;;;;;3.10;2.05;;;31.60;1.00;;;;;;5036105;28;20122;-71
2023/08/11 08:21:53;;;;;;;3.08;2.03;;;30.90;1.00;;;;;;5036984;28;20037;-71
2023/08/11 08:24:19;;;;;;;5.82;1.98;;;30.10;1.00;;;;;;5035728;28;20365;-71
2023/08/11 08:26:47;;;;;;;5.30;2.45;;;31.70;1.00;;;;;;5034846;28;20041;-71
2023/08/11 08:29:14;;;;;;;5.45;2.40;;;32.30;1.00;;;;;;5032721;28;20533;-71
2023/08/11 08:31:40;;;;;;;3.10;2.00;;;31.90;99.90;;;;;;5029110;28;20072;-71
2023/08/11 08:34:05;;;;;;;5.30;2.10;;;32.50;99.90;;;;;;5036459;28;20029;-70
2023/08/11 08:36:31;;;;;;;6.80;2.40;;;31.60;99.90;;;;;;5032559;28;20036;-70
2023/08/11 08:38:56;;;;;;;4.03;2.30;;;30.70;99.90;;;;;;5033679;28;20029;-70
2023/08/11 08:41:28;;;;;;;4.63;2.28;;;30.20;99.90;;;;;;5037289;28;20030;-70
2023/08/11 08:43:55;;;;;;;7.05;2.30;;;29.90;99.90;;;;;;5033168;28;20026;-71
2023/08/11 08:46:24;;;;;;;7.10;2.60;;;30.10;99.90;;;;;;5035557;28;20028;-70
2023/08/11 08:49:06;;;;;;;6.03;2.70;;;29.90;99.90;;;;;;5035523;28;20025;-70
2023/08/11 08:51:33;;;;;;;5.55;2.00;;;30.10;99.90;;;;;;5034670;28;20516;-71
2023/08/11 08:54:00;;;;;;;3.20;2.15;;;30.40;99.90;;;;;;5036202;28;20489;-71
2023/08/11 08:56:26;;;;;;;6.45;2.45;;;32.00;99.90;;;;;;5035705;28;20025;-71
2023/08/11 08:58:52;;;;;;;6.55;2.30;;;32.40;99.90;;;;;;5035052;28;20072;-71
2023/08/11 09:01:18;;;;;;;7.93;2.45;;;32.80;99.90;;;;;;5034515;28;20080;-70
2023/08/11 09:03:46;;;;;;;3.92;2.45;;;33.10;99.90;;;;;;5027170;28;20060;-71
2023/08/11 09:06:12;;;;;;;4.97;2.20;;;32.60;99.90;;;;;;5029534;28;20045;-70
2023/08/11 09:08:39;;;;;;;5.60;2.75;;;31.80;99.90;;;;;;5035259;28;20532;-70
2023/08/11 09:11:05;;;;;;;3.78;2.35;;;31.40;99.90;;;;;;5033796;28;20033;-71
2023/08/11 09:13:32;;;;;;;3.88;2.22;;;31.50;99.90;;;;;;5032449;28;20115;-71
2023/08/11 09:15:57;;;;;;;4.30;2.40;;;31.50;99.90;;;;;;5033204;28;20037;-70
2023/08/11 09:18:23;;;;;;;5.25;2.50;;;31.90;99.90;;;;;;5034602;28;20051;-70
2023/08/11 09:20:49;;;;;;;7.28;2.58;;;32.80;99.90;;;;;;5036323;28;20030;-70
2023/08/11 09:23:17;;;;;;;4.18;2.30;;;31.60;99.90;;;;;;5036034;28;20121;-70
2023/08/11 09:25:43;;;;;;;3.88;2.38;;;31.00;99.90;;;;;;5036025;28;20026;-70
2023/08/11 09:28:09;;;;;;;6.03;2.50;;;30.90;99.90;;;;;;5034105;28;20099;-70
2023/08/11 09:30:35;;;;;;;3.05;2.10;;;30.40;1.00;;;;;;5034094;28;20056;-70
2023/08/11 09:33:01;;;;;;;4.30;2.47;;;29.90;1.00;;;;;;5035789;28;20398;-70
2023/08/11 09:35:27;;;;;;;3.95;2.30;;;30.80;1.00;;;;;;5031046;28;20033;-71
2023/08/11 09:37:54;;;;;;;5.13;2.20;;;31.50;99.90;;;;;;5036630;28;20368;-71
2023/08/11 09:40:21;;;;;;;4.00;2.50;;;31.70;1.00;;;;;;5033945;28;20026;-70
2023/08/11 09:42:47;;;;;;;4.20;2.53;;;31.80;1.00;;;;;;5038325;28;20037;-72
2023/08/11 09:45:13;;;;;;;4.05;2.58;;;32.10;1.00;;;;;;5032052;28;20528;-71
2023/08/11 09:47:39;;;;;;;6.00;2.72;;;32.20;1.00;;;;;;5037153;28;20063;-71
2023/08/11 09:50:05;;;;;;;5.88;2.83;;;31.60;1.00;;;;;;5035546;28;20029;-70
2023/08/11 09:52:35;;;;;;;5.78;2.70;;;31.20;1.00;;;;;;5035084;28;20029;-70
2023/08/11 09:55:05;;;;;;;4.85;2.60;;;31.20;1.00;;;;;;5035350;28;20025;-70
2023/08/11 09:57:33;;;;;;;6.93;2.67;;;30.60;1.00;;;;;;5032405;28;20025;-70
2023/08/11 10:00:00;;;;;;;3.72;2.35;;;30.50;1.00;;;;;;5034966;28;20046;-71
2023/08/11 10:02:30;;;;;;;5.03;2.42;;;31.40;1.00;;;;;;5035525;28;20052;-70
2023/08/11 10:05:01;;;;;;;3.97;2.25;;;32.00;1.00;;;;;;5033489;28;20033;-73
2023/08/11 10:07:35;;;;;;;3.17;2.13;;;31.60;1.00;;;;;;5033852;28;20044;-70
2023/08/11 10:10:10;;;;;;;5.82;2.70;;;31.20;99.90;;;;;;5030418;28;20026;-70
2023/08/11 10:12:40;;;;;;;6.97;2.60;;;30.90;99.90;;;;;;5029657;28;20033;-71
2023/08/11 10:15:08;;;;;;;6.55;2.80;;;30.30;99.90;;;;;;5028174;28;20557;-71
2023/08/11 10:17:35;;;;;;;7.93;2.78;;;30.50;99.90;;;;;;5030823;28;20079;-70
2023/08/11 10:20:04;;;;;;;3.67;2.55;;;30.30;99.90;;;;;;5032321;28;20475;-72
2023/08/11 10:22:32;;;;;;;3.95;2.72;;;30.30;99.90;;;;;;5025455;28;20084;-70
2023/08/11 10:24:58;;;;;;;6.95;2.60;;;30.80;1.00;;;;;;5035039;28;20026;-70
2023/08/11 10:27:25;;;;;;;3.90;2.42;;;31.40;99.90;;;;;;5033707;28;20040;-70
2023/08/11 10:29:52;;;;;;;4.70;2.80;;;31.20;99.90;;;;;;5035508;28;20080;-70
2023/08/11 10:32:21;;;;;;;6.28;2.80;;;31.50;1.00;;;;;;5031100;28;20068;-70
2023/08/11 10:34:49;;;;;;;4.90;2.90;;;31.60;99.90;;;;;;5025058;28;20026;-70
2023/08/11 10:37:15;;;;;;;5.22;2.53;;;30.70;99.90;;;;;;5034412;28;20379;-71
2023/08/11 10:39:41;;;;;;;6.50;2.88;;;31.20;1.00;;;;;;5033242;28;20045;-70
2023/08/11 10:42:11;;;;;;;5.38;2.50;;;31.30;99.90;;;;;;5032165;28;20029;-70
2023/08/11 10:44:43;;;;;;;11.02;3.05;;;31.20;1.00;;;;;;5023640;28;20024;-70
2023/08/11 10:47:09;;;;;;;3.60;2.40;;;31.00;1.00;;;;;;5032092;28;20036;-70
2023/08/11 10:49:40;;;;;;;5.30;2.55;;;31.20;1.00;;;;;;5033223;28;20025;-69
2023/08/11 10:52:06;;;;;;;5.18;2.60;;;30.80;1.00;;;;;;5034578;28;20055;-70
2023/08/11 10:54:33;;;;;;;5.05;2.53;;;30.50;1.00;;;;;;5034226;28;20033;-70
2023/08/11 10:57:01;;;;;;;3.85;2.72;;;30.40;1.00;;;;;;5018291;28;20026;-69
2023/08/11 10:59:30;;;;;;;5.32;2.63;;;30.50;1.00;;;;;;5032532;28;20422;-70
2023/08/11 11:01:56;;;;;;;3.33;2.80;;;30.50;1.00;;;;;;5018365;28;20128;-70
2023/08/11 11:04:27;;;;;;;5.53;3.33;;;30.40;1.00;;;;;;5029838;28;20491;-70
2023/08/11 11:06:52;;;;;;;6.47;2.90;;;30.20;1.00;;;;;;5031404;28;20033;-70
2023/08/11 11:09:19;;;;;;;6.85;3.80;;;29.70;1.00;;;;;;5027542;28;20029;-70
2023/08/11 11:11:45;;;;;;;5.55;3.03;;;29.70;1.00;;;;;;5025766;28;20049;-70
2023/08/11 11:14:12;;;;;;;8.45;2.67;;;29.90;1.00;;;;;;5028459;28;20499;-70
2023/08/11 11:16:38;;;;;;;4.68;3.20;;;29.80;1.00;;;;;;5033489;28;20021;-71
2023/08/11 11:19:06;;;;;;;9.13;2.88;;;29.60;1.00;;;;;;5034096;28;20508;-70
2023/08/11 11:21:32;;;;;;;7.78;2.85;;;29.80;1.00;;;;;;5033338;28;20029;-70
2023/08/11 11:23:58;;;;;;;4.25;2.53;;;29.60;1.00;;;;;;5033626;28;20029;-70
2023/08/11 11:26:26;;;;;;;10.35;3.15;;;29.30;1.00;;;;;;5033539;28;20029;-70
2023/08/11 11:28:54;;;;;;;6.47;2.70;;;29.50;1.00;;;;;;5032573;28;20033;-70
2023/08/11 11:31:21;;;;;;;6.85;3.30;;;;;;;;;;5033163;28;20026;-70
2023/08/11 11:33:47;;;;;;;3.55;2.72;;;29.70;99.90;;;;;;5033064;28;20048;-70
2023/08/11 11:36:13;;;;;;;5.30;3.00;;;29.40;99.90;;;;;;5039670;28;20028;-71
2023/08/11 11:38:41;;;;;;;6.43;3.25;;;29.30;99.90;;;;;;5029344;28;20029;-70
2023/08/11 11:41:15;;;;;;;6.72;2.75;;;29.40;1.00;;;;;;5034753;28;20507;-70
2023/08/11 11:43:41;;;;;;;7.13;2.83;;;29.40;99.90;;;;;;5036267;28;20034;-70
2023/08/11 11:46:14;;;;;;;4.40;3.00;;;29.40;99.90;;;;;;5033416;28;20079;-70
2023/08/11 11:48:50;;;;;;;5.53;3.60;;;29.50;99.90;;;;;;5032014;28;20361;-70
2023/08/11 11:51:18;;;;;;;4.65;2.97;;;30.10;1.00;;;;;;5031835;28;20053;-70
2023/08/11 11:53:44;;;;;;;10.90;3.33;;;30.30;99.90;;;;;;5044188;28;20371;-70
2023/08/11 11:56:15;;;;;;;5.10;2.90;;;30.30;99.90;;;;;;5032775;28;20026;-71
2023/08/11 11:58:43;;;;;;;6.35;3.10;;;30.30;99.90;;;;;;5038056;28;20445;-70
2023/08/11 12:01:17;;;;;;;8.73;2.70;;;30.50;99.90;;;;;;5032153;28;20036;-70
2023/08/11 12:03:45;;;;;;;2.83;2.42;;;29.80;99.90;;;;;;5033604;28;20041;-69
2023/08/11 12:06:12;;;;;;;5.15;4.30;;;29.70;99.90;;;;;;5032426;28;20017;-69
2023/08/11 12:08:41;;;;;;;6.40;4.97;;;29.70;99.90;;;;;;5033064;28;20021;-69
2023/08/11 12:11:10;;;;;;;6.68;2.85;;;30.00;99.90;;;;;;5029055;28;20488;-69
2023/08/11 12:13:40;;;;;;;7.40;3.33;;;30.00;99.90;;;;;;5030330;28;20116;-69
2023/08/11 12:16:07;;;;;;;4.70;2.83;;;30.10;99.90;;;;;;5025029;28;20036;-69
2023/08/11 12:18:33;;;;;;;5.53;3.10;;;29.90;99.90;;;;;;5027980;28;20029;-69
2023/08/11 12:21:00;;;;;;;4.53;2.95;;;30.00;99.90;;;;;;5034593;28;20029;-69
2023/08/11 12:23:26;;;;;;;9.80;5.35;;;30.10;99.90;;;;;;5031136;28;20382;-69
2023/08/11 12:25:52;;;;;;;6.22;4.63;;;30.40;99.90;;;;;;5032579;28;20041;-69
2023/08/11 12:28:19;;;;;;;12.07;6.20;;;30.40;99.90;;;;;;5031582;28;20485;-71
2023/08/11 12:30:44;;;;;;;4.60;3.20;;;30.20;99.90;;;;;;5028923;28;20022;-70
2023/08/11 12:33:10;;;;;;;7.75;5.15;;;30.30;99.90;;;;;;5030462;28;20033;-69
2023/08/11 12:35:36;;;;;;;6.55;3.28;;;30.30;99.90;;;;;;5030452;28;20058;-69
2023/08/11 12:38:03;;;;;;;5.50;3.65;;;30.50;99.90;;;;;;5031426;28;20037;-69